Time;durP1;ratioP1;P1;durP2;ratioP2;P2;SDS_P1;SDS_P2;PMS_P1;PMS_P2;Temp;Humidity;BMP_temperature;BMP_pressure;BME280_temperature;BME280_humidity;BME280_pressure;Samples;Min_cycle;Max_cycle;Signal;HPM_P1;HPM_P2
2022/09/17 15:59:55;;;;;;;4.05;2.25;;;14.10;99.90;;;18.41;100.00;97623.00;5147867;27;20175;-77
2022/09/17 16:02:29;;;;;;;9.23;1.70;;;;;;;19.87;100.00;97636.53;5094293;27;20778;-79
2022/09/17 16:05:17;;;;;;;4.82;2.03;;;18.70;99.90;;;20.35;94.17;97647.22;5139385;27;20051;-78
2022/09/17 16:07:44;;;;;;;3.47;1.75;;;;;;;20.51;86.61;97639.66;5120355;27;20043;-75
2022/09/17 16:10:11;;;;;;;9.25;2.35;;;;;;;20.60;82.50;97661.47;5106494;28;20043;-76
2022/09/17 16:12:37;;;;;;;4.78;1.92;;;20.60;99.90;;;20.64;80.46;97659.59;5121839;27;20051;-75
2022/09/17 16:15:04;;;;;;;10.73;2.58;;;21.10;99.90;;;20.64;80.71;97656.03;5119054;27;20043;-75
2022/09/17 16:17:47;;;;;;;5.18;1.70;;;21.00;99.90;;;20.66;80.09;97659.19;5106541;28;20044;-75
2022/09/17 16:20:22;;;;;;;1.25;1.25;;;21.10;99.90;;;20.64;78.55;97654.06;5088438;27;20043;-75
2022/09/17 16:22:49;;;;;;;3.95;1.85;;;21.10;99.90;;;20.64;77.93;97669.81;5091714;27;20043;-75
2022/09/17 16:25:16;;;;;;;2.22;1.88;;;21.10;99.90;;;20.64;77.04;97667.06;5125521;27;20403;-75
2022/09/17 16:27:52;;;;;;;6.40;2.13;;;21.10;99.90;;;20.63;76.57;97660.72;5089866;27;20103;-75
2022/09/17 16:30:20;;;;;;;3.50;1.88;;;21.10;99.90;;;20.62;77.45;97659.16;5098681;27;20047;-75
2022/09/17 16:32:47;;;;;;;4.45;1.83;;;21.10;99.90;;;20.60;77.45;97659.50;5118615;27;20042;-75
2022/09/17 16:35:18;;;;;;;1.83;1.58;;;21.10;99.90;;;20.60;76.86;97656.75;5105054;27;20504;-75
2022/09/17 16:37:53;;;;;;;4.35;2.08;;;21.10;99.90;;;20.60;75.86;97655.97;5115664;27;20475;-75
2022/09/17 16:40:20;;;;;;;3.22;2.05;;;21.10;99.90;;;20.58;75.78;97653.59;5088833;27;20061;-75
2022/09/17 16:42:47;;;;;;;7.90;2.13;;;21.00;99.90;;;20.60;75.09;97659.50;5103452;27;20043;-75
2022/09/17 16:45:14;;;;;;;5.13;2.28;;;21.10;99.90;;;20.56;75.38;97650.41;5107850;27;20405;-75
2022/09/17 16:47:41;;;;;;;3.50;1.92;;;21.00;99.90;;;20.57;76.08;97649.22;5100400;27;20118;-75
2022/09/17 16:50:10;;;;;;;4.97;1.98;;;21.10;99.90;;;20.57;75.90;97643.72;5120531;27;20486;-74
2022/09/17 16:52:36;;;;;;;3.25;1.63;;;21.00;99.90;;;20.53;75.13;97637.34;5102153;28;20465;-75
2022/09/17 16:55:02;;;;;;;1.90;1.60;;;21.00;99.90;;;20.56;74.77;97639.38;5123850;27;20042;-74
2022/09/17 16:57:30;;;;;;;5.40;1.83;;;21.00;99.90;;;20.53;74.68;97637.34;5102828;27;20196;-75
2022/09/17 16:59:56;;;;;;;1.98;1.63;;;21.00;99.90;;;20.56;74.28;97642.13;5100654;27;20095;-75
2022/09/17 17:02:22;;;;;;;2.70;1.63;;;21.00;99.90;;;20.54;75.29;97641.69;5100063;27;20043;-75
2022/09/17 17:04:48;;;;;;;1.30;1.17;;;21.00;99.90;;;20.53;75.48;97642.84;5104942;27;20524;-75
2022/09/17 17:07:14;;;;;;;2.28;1.67;;;21.00;99.90;;;20.49;75.91;97650.25;5119362;27;20043;-75
2022/09/17 17:09:40;;;;;;;4.47;1.80;;;21.00;99.90;;;20.48;75.04;97640.41;5077627;27;20584;-75
2022/09/17 17:12:07;;;;;;;2.63;1.80;;;21.00;99.90;;;20.52;74.79;97640.44;5089879;27;20575;-80
2022/09/17 17:14:33;;;;;;;3.00;1.42;;;21.00;99.90;;;20.49;74.43;97636.47;5092751;27;20040;-77
2022/09/17 17:16:59;;;;;;;4.60;1.65;;;20.90;99.90;;;20.50;74.17;97637.25;5107930;27;20439;-76
2022/09/17 17:19:25;;;;;;;3.45;1.67;;;20.90;99.90;;;20.50;75.06;97631.75;5102044;27;20538;-75
2022/09/17 17:21:52;;;;;;;5.70;2.15;;;21.00;99.90;;;20.50;75.19;97637.25;5088418;27;20044;-75
2022/09/17 17:24:18;;;;;;;2.50;1.58;;;21.00;99.90;;;20.47;75.29;97641.53;5085949;27;20043;-75
2022/09/17 17:26:46;;;;;;;3.83;1.33;;;20.90;99.90;;;20.48;74.03;97632.13;5086093;27;20042;-75
2022/09/17 17:29:12;;;;;;;3.50;2.03;;;21.00;99.90;;;20.47;74.30;97629.72;5106405;27;20075;-75
2022/09/17 17:31:38;;;;;;;2.90;1.92;;;20.90;99.90;;;20.46;73.92;97628.94;5102225;27;20051;-75
2022/09/17 17:34:04;;;;;;;1.85;1.50;;;20.90;99.90;;;20.50;74.05;97632.53;5086747;27;20073;-75
2022/09/17 17:36:30;;;;;;;4.60;1.95;;;20.90;99.90;;;20.48;74.92;97623.06;5107042;27;20047;-75
2022/09/17 17:38:57;;;;;;;2.15;1.80;;;20.90;99.90;;;20.47;75.35;97624.22;5086230;28;20035;-75
2022/09/17 17:41:26;;;;;;;3.35;2.03;;;20.90;99.90;;;20.42;74.83;97611.56;5087317;28;20537;-75
2022/09/17 17:43:56;;;;;;;3.17;2.17;;;20.90;99.90;;;20.42;74.43;97611.56;5091081;27;20438;-75
2022/09/17 17:46:22;;;;;;;5.53;1.85;;;20.90;99.90;;;20.44;73.99;97609.22;5107065;27;20409;-75
2022/09/17 17:48:49;;;;;;;4.03;2.10;;;20.90;99.90;;;20.45;74.07;97610.03;5104956;27;20119;-76
2022/09/17 17:51:17;;;;;;;3.00;1.67;;;20.80;99.90;;;20.44;74.95;97620.25;5104845;27;20512;-76
2022/09/17 17:53:43;;;;;;;6.68;1.83;;;20.80;99.90;;;20.42;75.62;97628.06;5073559;27;20086;-76
2022/09/17 17:56:10;;;;;;;5.13;1.70;;;20.80;99.90;;;20.39;75.99;97624.09;5101258;27;20040;-75
2022/09/17 17:58:36;;;;;;;1.73;1.58;;;20.80;99.90;;;20.37;75.02;97622.88;5102044;27;20142;-75
2022/09/17 18:01:18;;;;;;;5.50;1.90;;;20.80;99.90;;;20.36;74.92;97619.31;5071814;28;20460;-75
2022/09/17 18:03:44;;;;;;;;;;;20.80;99.90;;;20.38;74.69;97627.25;5074379;27;20119;-78
2022/09/17 18:06:10;;;;;;;4.50;2.65;;;20.70;99.90;;;20.40;74.49;97635.91;5090600;27;19924;-75
2022/09/17 18:08:38;;;;;;;3.25;2.20;;;20.80;99.90;;;20.39;76.08;97628.81;5099062;27;20860;-75
2022/09/17 18:11:07;;;;;;;2.55;1.67;;;20.80;99.90;;;20.37;76.24;97633.88;5069812;28;20119;-75
2022/09/17 18:13:36;;;;;;;5.32;2.58;;;20.80;99.90;;;20.34;75.54;97632.66;5074011;27;20040;-76
2022/09/17 18:16:03;;;;;;;1.73;1.58;;;20.80;99.90;;;20.33;75.24;97625.56;5084563;27;20059;-76
2022/09/17 18:18:38;;;;;;;3.67;2.38;;;20.80;99.90;;;20.35;75.26;97622.44;5073694;27;20118;-76
2022/09/17 18:21:06;;;;;;;3.55;2.22;;;20.70;99.90;;;20.32;75.08;97623.97;5086902;28;20999;-75
2022/09/17 18:23:38;;;;;;;1.83;1.73;;;20.70;99.90;;;20.35;76.27;97616.94;5104613;27;20035;-76
2022/09/17 18:26:05;;;;;;;;;;;20.70;99.90;;;20.33;76.90;97614.56;5117970;27;20039;-75
2022/09/17 18:28:32;;;;;;;3.13;2.70;;;20.70;99.90;;;20.31;77.47;97619.63;5104700;27;19927;-75
2022/09/17 18:31:23;;;;;;;2.58;2.15;;;20.70;99.90;;;20.31;76.00;97621.59;5074624;27;20453;-75
2022/09/17 18:34:18;;;;;;;2.88;2.55;;;20.80;99.90;;;20.31;76.15;97632.63;5099947;27;20078;-75
2022/09/17 18:36:45;;;;;;;2.63;2.08;;;20.70;99.90;;;20.28;75.89;97623.13;5089799;27;20118;-75
2022/09/17 18:39:13;;;;;;;3.70;2.40;;;20.70;99.90;;;20.31;76.49;97627.91;5084589;27;20049;-76
2022/09/17 18:41:39;;;;;;;6.75;2.17;;;20.70;99.90;;;20.31;77.07;97632.63;5073724;28;20043;-76
2022/09/17 18:44:07;;;;;;;2.85;1.45;;;20.70;99.90;;;20.29;77.95;97630.22;5065914;27;20125;-77
2022/09/17 18:46:33;;;;;;;5.15;2.40;;;20.70;99.90;;;20.25;77.21;97637.63;5091541;27;20402;-79
2022/09/17 18:48:59;;;;;;;3.60;2.22;;;20.70;99.90;;;20.25;76.50;97637.63;5088870;27;20058;-77
2022/09/17 18:51:26;;;;;;;3.08;2.40;;;20.70;99.90;;;20.28;76.27;97642.41;5105895;27;20035;-76
2022/09/17 18:53:52;;;;;;;3.45;2.30;;;20.60;99.90;;;20.28;76.07;97638.84;5088406;28;20050;-76
2022/09/17 18:56:21;;;;;;;4.32;2.25;;;20.70;99.90;;;20.28;77.58;97645.16;5092162;27;20032;-76
2022/09/17 18:58:49;;;;;;;3.85;3.10;;;20.70;99.90;;;20.28;77.58;97647.13;5075732;27;20056;-76
2022/09/17 19:01:16;;;;;;;2.10;1.80;;;20.60;99.90;;;20.26;77.96;97643.94;5087553;28;20513;-75
2022/09/17 19:03:44;;;;;;;2.70;2.00;;;20.70;99.90;;;20.25;76.88;97640.38;5056595;27;20040;-75
2022/09/17 19:06:11;;;;;;;4.50;2.40;;;20.60;99.90;;;20.24;77.06;97638.78;5105355;27;20119;-75
2022/09/17 19:08:37;;;;;;;3.42;2.58;;;20.60;99.90;;;20.23;76.87;97641.91;5089815;27;20207;-75
2022/09/17 19:11:04;;;;;;;3.40;2.53;;;20.60;99.90;;;20.23;76.68;97645.47;5109531;27;20476;-76
2022/09/17 19:13:43;;;;;;;3.97;3.08;;;20.60;99.90;;;20.27;77.51;97640.00;5090451;27;20200;-76
2022/09/17 19:16:10;;;;;;;14.32;4.28;;;20.60;99.90;;;20.25;78.19;97639.56;5059176;28;20035;-75
2022/09/17 19:18:36;;;;;;;6.57;3.22;;;20.60;99.90;;;20.25;77.53;97636.81;5057037;28;20480;-75
2022/09/17 19:21:07;;;;;;;4.97;2.28;;;20.70;99.90;;;20.23;77.10;97641.91;5055701;28;20382;-75
2022/09/17 19:23:33;;;;;;;5.57;2.63;;;20.60;99.90;;;20.21;77.08;97635.97;5090860;28;20463;-75
2022/09/17 19:26:11;;;;;;;8.60;3.45;;;20.60;99.90;;;20.24;76.66;97626.97;5110555;27;20035;-75
2022/09/17 19:28:40;;;;;;;9.63;3.92;;;20.60;99.90;;;20.21;77.62;97627.72;5077201;28;20393;-75
2022/09/17 19:31:08;;;;;;;15.57;6.28;;;20.50;99.90;;;20.20;78.16;97626.91;5110907;27;20123;-75
2022/09/17 19:33:34;;;;;;;10.63;4.88;;;20.60;99.90;;;20.20;78.46;97618.66;5076291;28;20045;-75
2022/09/17 19:36:15;;;;;;;12.70;4.88;;;20.60;99.90;;;20.20;77.64;97615.09;5060012;28;20035;-75
2022/09/17 19:38:41;;;;;;;9.55;4.18;;;20.60;99.90;;;20.22;77.03;97624.56;5076135;28;20075;-74
2022/09/17 19:41:13;;;;;;;11.10;4.45;;;20.50;99.90;;;20.21;76.95;97611.19;5089019;28;20040;-75
2022/09/17 19:43:43;;;;;;;16.20;4.05;;;20.50;99.90;;;20.20;77.08;97618.66;5106790;27;20438;-75
2022/09/17 19:46:16;;;;;;;23.60;8.77;;;20.50;99.90;;;20.24;78.08;97629.72;5104923;27;20118;-74
2022/09/17 19:48:44;;;;;;;25.08;10.75;;;20.50;99.90;;;20.20;78.45;97615.91;5098810;28;20066;-75
2022/09/17 19:51:09;;;;;;;18.98;8.10;;;20.60;99.90;;;20.21;77.48;97619.44;5094314;28;20066;-74
2022/09/17 19:53:37;;;;;;;18.13;6.90;;;20.60;99.90;;;20.20;77.53;97618.66;5088558;28;20052;-74
2022/09/17 19:56:05;;;;;;;17.88;7.07;;;20.60;99.90;;;20.16;77.55;97621.34;5090657;28;20036;-75
2022/09/17 19:58:31;;;;;;;11.50;5.53;;;20.50;99.90;;;20.17;77.35;97622.13;5090819;28;20063;-75
2022/09/17 20:00:58;;;;;;;19.00;7.95;;;20.50;99.90;;;20.15;77.48;97617.00;5107417;28;20032;-74
2022/09/17 20:03:24;;;;;;;20.50;8.13;;;20.50;99.90;;;20.16;77.99;97615.81;5076432;28;20043;-75
2022/09/17 20:06:02;;;;;;;21.65;9.88;;;20.50;99.90;;;20.19;78.09;97613.50;5092247;28;20051;-75
2022/09/17 20:08:37;;;;;;;25.35;10.80;;;20.40;99.90;;;20.19;78.75;97605.25;5094521;28;20073;-75
2022/09/17 20:11:09;;;;;;;24.42;8.32;;;20.50;99.90;;;20.15;77.75;97619.75;5104699;28;20036;-75
2022/09/17 20:13:37;;;;;;;21.15;8.43;;;20.50;99.90;;;20.15;77.75;97617.00;5075076;28;20657;-74
2022/09/17 20:16:19;;;;;;;17.85;8.18;;;20.50;99.90;;;20.14;77.58;97618.16;5089925;28;20051;-75
2022/09/17 20:18:46;;;;;;;15.50;7.50;;;20.50;99.90;;;20.12;77.74;97616.91;5108554;27;20042;-75
2022/09/17 20:21:18;;;;;;;23.13;8.60;;;20.50;99.90;;;20.14;78.72;97609.88;5093181;28;20282;-75
2022/09/17 20:23:44;;;;;;;24.20;11.48;;;20.50;99.90;;;20.14;78.67;97607.13;5106702;28;20368;-75
2022/09/17 20:26:12;;;;;;;22.83;8.95;;;20.50;99.90;;;20.11;78.39;97613.38;5075802;28;20046;-74
2022/09/17 20:28:38;;;;;;;15.95;7.38;;;20.50;99.90;;;20.10;77.99;97614.53;5110167;28;20048;-74
2022/09/17 20:31:19;;;;;;;25.42;9.27;;;20.50;99.90;;;20.11;78.06;97607.09;5070729;28;20036;-74
2022/09/17 20:33:45;;;;;;;20.50;7.72;;;20.50;99.90;;;20.09;78.16;97609.41;5092147;28;20123;-74
2022/09/17 20:36:16;;;;;;;21.55;9.65;;;20.40;99.90;;;20.14;78.82;97609.09;5097939;28;20043;-74
2022/09/17 20:38:42;;;;;;;29.30;9.77;;;20.50;99.90;;;20.11;78.83;97605.13;5090793;28;20493;-78
2022/09/17 20:41:10;;;;;;;27.17;11.30;;;20.50;99.90;;;20.11;79.08;97602.38;5077809;28;20071;-75
2022/09/17 20:43:46;;;;;;;25.77;10.52;;;20.40;99.90;;;20.10;78.63;97598.03;5105347;28;20055;-74
2022/09/17 20:46:12;;;;;;;20.73;10.75;;;20.40;99.90;;;20.14;78.28;97593.38;5077985;27;20066;-74
2022/09/17 20:48:38;;;;;;;16.67;8.85;;;20.50;99.90;;;20.12;78.31;97592.16;5080047;27;20051;-74
2022/09/17 20:51:12;;;;;;;22.38;9.27;;;20.50;99.90;;;20.11;78.46;97601.56;5096272;27;20046;-74
2022/09/17 20:53:38;;;;;;;22.60;11.55;;;20.40;99.90;;;20.10;79.27;97606.28;5113667;27;20060;-74
2022/09/17 20:56:07;;;;;;;23.83;10.48;;;20.50;99.90;;;20.12;79.46;97603.16;5112679;27;20120;-74
2022/09/17 20:58:34;;;;;;;21.35;10.50;;;20.40;99.90;;;20.10;79.14;97594.50;5082606;27;20111;-74
2022/09/17 21:01:12;;;;;;;21.17;9.23;;;20.40;99.90;;;20.09;78.70;97596.41;5084292;27;20371;-74
2022/09/17 21:03:38;;;;;;;21.65;9.82;;;20.40;99.90;;;20.10;78.43;97595.28;5099232;28;20055;-74
2022/09/17 21:06:05;;;;;;;21.05;9.32;;;20.40;99.90;;;20.09;78.62;97593.66;5095959;28;20032;-74
2022/09/17 21:08:31;;;;;;;25.77;11.68;;;20.40;99.90;;;20.09;79.87;97592.88;5112350;27;20190;-74
2022/09/17 21:11:01;;;;;;;23.05;10.00;;;20.40;99.90;;;20.07;79.49;97590.47;5095499;28;20043;-74
2022/09/17 21:13:27;;;;;;;33.15;11.82;;;20.40;99.90;;;20.09;79.09;97592.88;5098140;28;20063;-74
2022/09/17 21:15:56;;;;;;;19.38;9.35;;;20.50;99.90;;;20.08;78.93;97586.59;5096612;28;20050;-74
2022/09/17 21:18:22;;;;;;;19.50;9.68;;;20.40;99.90;;;20.11;78.75;97590.56;5114851;27;20048;-74
2022/09/17 21:20:48;;;;;;;19.60;9.90;;;20.40;99.90;;;20.06;78.97;97588.91;5101028;28;20118;-74
2022/09/17 21:23:14;;;;;;;22.63;10.43;;;20.30;99.90;;;20.06;79.19;97582.59;5080789;28;20039;-73
2022/09/17 21:25:41;;;;;;;21.33;9.05;;;20.40;99.90;;;20.08;79.39;97586.59;5111690;27;20063;-73
2022/09/17 21:28:08;;;;;;;32.10;12.10;;;20.40;99.90;;;20.08;79.71;97588.53;5115310;27;20039;-73
2022/09/17 21:30:34;;;;;;;26.33;11.63;;;20.40;99.90;;;20.09;79.02;97588.16;5115975;27;20036;-74
2022/09/17 21:33:01;;;;;;;25.60;10.60;;;20.30;99.90;;;20.10;78.58;97586.22;5112131;27;20213;-74
2022/09/17 21:35:31;;;;;;;18.65;9.65;;;20.40;99.90;;;20.07;78.99;97581.44;5088404;28;20110;-73
2022/09/17 21:37:57;;;;;;;20.65;9.77;;;20.40;99.90;;;20.06;78.86;97583.41;5108066;27;20051;-73
2022/09/17 21:40:23;;;;;;;21.70;9.20;;;20.40;99.90;;;20.08;79.46;97583.03;5109505;27;20044;-73
2022/09/17 21:42:50;;;;;;;22.60;10.63;;;20.40;99.90;;;20.09;79.78;97577.16;5096355;28;20091;-73
2022/09/17 21:45:17;;;;;;;17.27;8.35;;;20.40;99.90;;;20.09;79.55;97590.91;5108848;27;20091;-73
2022/09/17 21:47:43;;;;;;;27.63;10.85;;;20.40;99.90;;;20.06;79.16;97585.34;5115060;27;20035;-74
2022/09/17 21:50:10;;;;;;;21.95;10.88;;;20.40;99.90;;;20.07;78.96;97584.97;5096741;27;20124;-74
2022/09/17 21:52:36;;;;;;;19.75;9.85;;;20.40;99.90;;;20.07;78.71;97582.22;5108648;27;20058;-74
2022/09/17 21:55:03;;;;;;;27.63;10.93;;;20.40;99.90;;;20.07;78.66;97582.22;5096765;27;20784;-74
2022/09/17 21:57:29;;;;;;;28.05;10.73;;;20.40;99.90;;;20.07;79.50;97586.94;5117137;27;20067;-74
2022/09/17 21:59:55;;;;;;;21.08;9.70;;;20.40;99.90;;;20.06;79.95;97588.13;5096707;28;20050;-74
2022/09/17 22:02:21;;;;;;;24.17;9.63;;;20.40;99.90;;;20.06;79.32;97580.66;5089605;27;20389;-73
2022/09/17 22:04:47;;;;;;;18.88;9.73;;;20.40;99.90;;;20.08;79.19;97585.78;5088749;28;20246;-73
2022/09/17 22:07:13;;;;;;;19.92;10.15;;;20.40;99.90;;;20.06;78.81;97585.34;5110668;27;20460;-73
2022/09/17 22:09:39;;;;;;;21.25;9.40;;;20.40;99.90;;;20.05;78.61;97592.81;5102718;27;20056;-73
2022/09/17 22:12:06;;;;;;;19.25;9.02;;;20.40;99.90;;;20.05;79.25;97592.81;5095232;27;20122;-73
2022/09/17 22:14:32;;;;;;;21.55;10.35;;;20.40;99.90;;;20.06;79.72;97594.41;5111220;27;20084;-73
2022/09/17 22:16:58;;;;;;;25.35;10.48;;;20.40;99.90;;;20.08;79.44;97596.81;5103707;27;20040;-73
2022/09/17 22:19:25;;;;;;;19.60;9.57;;;20.40;99.90;;;20.06;78.87;97594.41;5107205;27;20439;-73
2022/09/17 22:21:52;;;;;;;25.13;9.02;;;20.40;99.90;;;20.07;78.65;97595.19;5090768;28;20132;-73
2022/09/17 22:24:20;;;;;;;19.63;8.32;;;20.40;99.90;;;20.06;78.59;97594.41;5090105;27;20096;-73
2022/09/17 22:26:49;;;;;;;19.75;9.00;;;20.30;99.90;;;20.05;78.70;97587.31;5107619;27;20048;-74
2022/09/17 22:29:17;;;;;;;21.00;10.23;;;20.30;99.90;;;20.04;79.38;97591.22;5107824;27;20422;-73
2022/09/17 22:31:43;;;;;;;17.67;9.52;;;20.40;99.90;;;20.06;79.42;97591.66;5091485;27;20043;-73
2022/09/17 22:34:12;;;;;;;27.98;11.27;;;20.30;99.90;;;20.04;79.20;97599.47;5089275;27;20088;-73
2022/09/17 22:36:38;;;;;;;18.52;9.05;;;20.40;99.90;;;20.03;79.00;97595.16;5086800;28;20078;-74
2022/09/17 22:39:04;;;;;;;24.63;10.77;;;20.30;99.90;;;20.06;78.71;97590.88;5092287;27;20048;-74
2022/09/17 22:41:33;;;;;;;19.13;9.23;;;20.30;99.90;;;20.04;78.83;97588.47;5077587;27;20456;-73
2022/09/17 22:44:08;;;;;;;18.33;9.05;;;20.30;99.90;;;20.05;79.42;97589.25;5104884;27;20043;-73
2022/09/17 22:46:38;;;;;;;26.50;10.45;;;20.30;99.90;;;20.04;79.26;97590.44;5078051;27;20583;-73
2022/09/17 22:49:04;;;;;;;28.58;11.00;;;20.30;99.90;;;20.03;79.82;97591.59;5089970;28;20054;-73
2022/09/17 22:51:30;;;;;;;18.50;9.55;;;20.30;99.90;;;20.05;78.77;97595.59;5079940;28;20039;-73
2022/09/17 22:53:57;;;;;;;19.73;9.95;;;20.40;99.90;;;20.05;78.52;97592.81;5094962;28;20077;-73
2022/09/17 22:56:23;;;;;;;15.90;9.30;;;20.30;99.90;;;20.04;78.56;97595.94;5078310;27;20120;-73
2022/09/17 22:58:49;;;;;;;15.88;9.27;;;20.30;99.90;;;20.04;78.48;97604.97;5092521;27;20430;-73
2022/09/17 23:01:20;;;;;;;28.20;10.00;;;20.30;99.90;;;20.03;79.49;97597.09;5102092;27;20036;-74
2022/09/17 23:03:47;;;;;;;;;;;20.30;99.90;;;20.03;79.58;97599.84;5093309;27;20047;-73
2022/09/17 23:06:16;;;;;;;16.98;8.95;;;20.30;99.90;;;20.06;79.05;97594.41;5111275;27;19934;-73
2022/09/17 23:08:42;;;;;;;22.35;9.98;;;20.40;99.90;;;20.06;78.65;97593.63;5073888;28;20077;-73
2022/09/17 23:11:16;;;;;;;21.05;9.63;;;20.40;99.90;;;20.06;78.38;97602.66;5075563;28;20043;-73
2022/09/17 23:13:42;;;;;;;14.50;8.23;;;20.30;99.90;;;20.05;78.21;97592.81;5103447;27;20035;-73
2022/09/17 23:16:08;;;;;;;18.52;7.63;;;20.40;99.90;;;20.05;78.52;97603.00;5106754;27;20045;-73
2022/09/17 23:18:35;;;;;;;17.42;9.35;;;20.30;99.90;;;20.03;79.39;97600.66;5089362;27;20039;-73
2022/09/17 23:21:13;;;;;;;20.10;10.13;;;20.40;99.90;;;20.04;79.30;97602.22;5091658;28;20100;-74
2022/09/17 23:23:40;;;;;;;15.68;8.40;;;20.40;99.90;;;20.06;78.47;97594.41;5107656;27;20036;-73
2022/09/17 23:26:09;;;;;;;19.52;9.70;;;20.30;99.90;;;20.05;78.44;97592.81;5073937;28;20784;-73
2022/09/17 23:28:35;;;;;;;17.17;7.90;;;20.30;99.90;;;20.03;78.54;97592.41;5077778;28;20103;-73
2022/09/17 23:31:15;;;;;;;19.05;9.70;;;20.30;99.90;;;20.02;78.65;97599.03;5074097;28;20047;-73
2022/09/17 23:33:42;;;;;;;15.45;8.60;;;20.30;99.90;;;20.05;78.94;97592.81;5109322;27;20054;-73
2022/09/17 23:36:11;;;;;;;20.50;8.73;;;20.30;99.90;;;20.04;79.04;97591.22;5108302;27;20109;-74
2022/09/17 23:38:38;;;;;;;18.58;8.88;;;20.40;99.90;;;20.04;78.78;97582.97;5089734;28;20044;-74
2022/09/17 23:41:25;;;;;;;16.67;8.77;;;20.30;99.90;;;20.03;78.63;97584.13;5088825;28;20082;-74
2022/09/17 23:43:53;;;;;;;15.85;7.93;;;20.30;99.90;;;20.04;78.62;97582.16;5094559;28;20044;-73
2022/09/17 23:46:21;;;;;;;18.20;8.38;;;20.30;99.90;;;20.04;78.50;97576.66;5087042;28;20035;-73
2022/09/17 23:48:47;;;;;;;19.75;9.15;;;20.30;99.90;;;20.01;79.03;97580.16;5102181;27;20508;-73
2022/09/17 23:51:15;;;;;;;23.05;9.15;;;20.20;99.90;;;20.02;79.49;97582.53;5078713;28;20038;-73
2022/09/17 23:53:42;;;;;;;20.13;9.18;;;20.30;99.90;;;20.02;78.87;97587.25;5105851;28;20154;-74
2022/09/17 23:56:13;;;;;;;14.98;7.85;;;20.40;99.90;;;20.02;78.48;97582.53;5088592;28;20040;-74
2022/09/17 23:58:39;;;;;;;26.45;8.60;;;20.30;99.90;;;20.01;78.45;97583.69;5093623;28;20056;-73
